Pavelec, Russia
Current Conditions -  °F | °C
As of 8:00 PM on Sunday 21 Dec 2014 (Local Time) from UUDD Reporting Station
Broken Clouds Broken Clouds  
Wind Chill: 27°   Ceiling: 3300
Heat Index: 34°   Visibility: 6mi
Dew Point: 32°   Wind: 9mph
Humidity: 93%   Direction: 230°SW
Pressure: 29.5"   Gusts: NA
Location:  53.79°N, 39.25°E
Report Text: UUDD 211700Z 23004MPS 200V260 9999 BKN033 01/M00 Q0999 3229009582290095 NOSIG
Loading
Personal Weather Stations






























Interactive Weather Map New forecast layout! Learn more

10-Day Weather Forecast

Advertisements
Track Severe Weather on mobile